createdAt,value
2016-11-20T00:00:04.309Z,1004.55
2016-11-20T00:01:12.947Z,1004.59
2016-11-20T00:02:21.551Z,1004.56
2016-11-20T00:03:30.194Z,1004.55
2016-11-20T00:04:38.789Z,1004.57
2016-11-20T00:05:47.389Z,1004.62
2016-11-20T00:06:56.002Z,1004.64
2016-11-20T00:08:04.629Z,1004.6
2016-11-20T00:09:13.253Z,1004.61
2016-11-20T00:10:21.866Z,1004.64
2016-11-20T00:11:30.488Z,1004.58
2016-11-20T00:12:39.092Z,1004.6
2016-11-20T00:13:47.691Z,1004.58
2016-11-20T00:14:56.329Z,1004.57
2016-11-20T00:16:04.955Z,1004.59
2016-11-20T00:17:13.581Z,1004.5
2016-11-20T00:18:22.190Z,1004.46
2016-11-20T00:19:30.823Z,1004.49
2016-11-20T00:20:39.456Z,1004.49
2016-11-20T00:21:48.082Z,1004.5
2016-11-20T00:22:56.724Z,1004.53
2016-11-20T00:24:05.345Z,1004.55
2016-11-20T00:25:13.979Z,1004.56
2016-11-20T00:26:22.620Z,1004.52
2016-11-20T00:27:31.259Z,1004.53
2016-11-20T00:28:39.867Z,1004.51
2016-11-20T00:29:48.475Z,1004.54
2016-11-20T00:30:57.076Z,1004.55
2016-11-20T00:32:05.700Z,1004.52
2016-11-20T00:33:14.322Z,1004.55
2016-11-20T00:34:22.951Z,1004.59
2016-11-20T00:35:31.566Z,1004.55
2016-11-20T00:36:40.202Z,1004.52
2016-11-20T00:37:48.831Z,1004.54
2016-11-20T00:38:57.474Z,1004.57
2016-11-20T00:40:06.145Z,1004.57
2016-11-20T00:41:14.767Z,1004.59
2016-11-20T00:42:23.366Z,1004.65
2016-11-20T00:43:31.978Z,1004.6
2016-11-20T00:44:40.575Z,1004.61
2016-11-20T00:45:49.178Z,1004.67
2016-11-20T00:46:57.821Z,1004.64
2016-11-20T00:48:06.462Z,1004.66
2016-11-20T00:49:15.066Z,1004.67
2016-11-20T00:50:23.705Z,1004.66
2016-11-20T00:51:32.301Z,1004.62
2016-11-20T00:52:40.907Z,1004.68
2016-11-20T00:53:49.501Z,1004.67
2016-11-20T00:54:58.147Z,1004.67
2016-11-20T00:56:06.768Z,1004.66
2016-11-20T00:57:15.392Z,1004.69
2016-11-20T00:58:24.007Z,1004.67
2016-11-20T00:59:32.635Z,1004.71
2016-11-20T01:00:41.277Z,1004.7
2016-11-20T01:01:49.873Z,1004.7
2016-11-20T01:02:58.494Z,1004.71
2016-11-20T01:04:07.107Z,1004.75
2016-11-20T01:05:15.711Z,1004.77
2016-11-20T01:06:24.325Z,1004.74
2016-11-20T01:07:32.953Z,1004.76
2016-11-20T01:08:41.580Z,1004.76
2016-11-20T01:09:50.221Z,1004.73
2016-11-20T01:10:58.834Z,1004.81
2016-11-20T01:12:07.436Z,1004.77
2016-11-20T01:13:16.379Z,1004.79
2016-11-20T01:14:25.010Z,1004.8
2016-11-20T01:15:33.650Z,1004.79
2016-11-20T01:16:42.275Z,1004.79
2016-11-20T01:17:50.875Z,1004.8
2016-11-20T01:18:59.494Z,1004.82
2016-11-20T01:20:08.109Z,1004.79
2016-11-20T01:21:16.754Z,1004.74
2016-11-20T01:22:25.374Z,1004.77
2016-11-20T01:23:34.018Z,1004.75
2016-11-20T01:24:42.625Z,1004.78
2016-11-20T01:25:51.271Z,1004.8
2016-11-20T01:27:00.210Z,1004.78
2016-11-20T01:28:09.152Z,1004.79
2016-11-20T01:29:17.776Z,1004.85
2016-11-20T01:30:26.393Z,1004.84
2016-11-20T01:31:35.340Z,1004.82
2016-11-20T01:32:43.961Z,1004.83
2016-11-20T01:33:52.566Z,1004.84
2016-11-20T01:35:01.190Z,1004.83
2016-11-20T01:36:10.124Z,1004.83
2016-11-20T01:37:18.727Z,1004.77
2016-11-20T01:38:27.351Z,1004.8
2016-11-20T01:39:35.944Z,1004.82
2016-11-20T01:40:44.587Z,1004.82
2016-11-20T01:41:53.192Z,1004.88
2016-11-20T01:43:01.808Z,1004.92
2016-11-20T01:44:10.434Z,1004.91
2016-11-20T01:45:19.054Z,1004.92
2016-11-20T01:46:27.701Z,1004.93
2016-11-20T01:47:36.339Z,1004.9
2016-11-20T01:48:44.969Z,1004.85
2016-11-20T01:49:53.615Z,1004.9
2016-11-20T01:51:02.236Z,1004.9
2016-11-20T01:52:10.881Z,1004.89
2016-11-20T01:53:19.503Z,1004.88
2016-11-20T01:54:28.148Z,1004.91
2016-11-20T01:55:36.737Z,1004.94
2016-11-20T01:56:45.384Z,1004.91
2016-11-20T01:57:54.029Z,1004.96
2016-11-20T01:59:02.647Z,1004.92
2016-11-20T02:00:11.250Z,1004.93
2016-11-20T02:01:19.876Z,1004.88
2016-11-20T02:02:28.521Z,1004.88
2016-11-20T02:03:37.156Z,1004.86
2016-11-20T02:04:45.785Z,1004.87
2016-11-20T02:05:54.382Z,1004.89
2016-11-20T02:07:03.032Z,1004.9
2016-11-20T02:08:11.676Z,1004.9
2016-11-20T02:09:20.294Z,1004.89
2016-11-20T02:10:28.921Z,1004.89
2016-11-20T02:11:37.562Z,1004.82
2016-11-20T02:12:46.201Z,1004.85
2016-11-20T02:13:54.832Z,1004.83
2016-11-20T02:15:03.443Z,1004.81
2016-11-20T02:16:12.073Z,1004.81
2016-11-20T02:17:20.740Z,1004.79
2016-11-20T02:18:29.386Z,1004.78
2016-11-20T02:19:38.013Z,1004.78
2016-11-20T02:20:46.661Z,1004.8
2016-11-20T02:21:55.303Z,1004.79
2016-11-20T02:23:03.920Z,1004.77
2016-11-20T02:24:12.574Z,1004.77
2016-11-20T02:25:21.246Z,1004.74
2016-11-20T02:26:29.879Z,1004.73
2016-11-20T02:27:38.481Z,1004.74
2016-11-20T02:28:47.101Z,1004.73
2016-11-20T02:29:55.729Z,1004.7
2016-11-20T02:31:04.339Z,1004.76
2016-11-20T02:32:12.943Z,1004.74
2016-11-20T02:33:21.589Z,1004.71
2016-11-20T02:34:30.207Z,1004.7
2016-11-20T02:35:38.836Z,1004.72
2016-11-20T02:36:47.457Z,1004.73
2016-11-20T02:37:56.066Z,1004.77
2016-11-20T02:39:04.667Z,1004.75
2016-11-20T02:40:13.299Z,1004.72
2016-11-20T02:41:21.909Z,1004.71
2016-11-20T02:42:30.530Z,1004.7
2016-11-20T02:43:39.155Z,1004.73
2016-11-20T02:44:47.798Z,1004.76
2016-11-20T02:45:56.401Z,1004.71
2016-11-20T02:47:05.015Z,1004.74
2016-11-20T02:48:13.614Z,1004.77
2016-11-20T02:49:22.228Z,1004.7
2016-11-20T02:50:30.848Z,1004.72
2016-11-20T02:51:39.470Z,1004.66
2016-11-20T02:52:48.070Z,1004.66
2016-11-20T02:53:56.687Z,1004.67
2016-11-20T02:55:05.312Z,1004.65
2016-11-20T02:56:13.904Z,1004.65
2016-11-20T02:57:22.512Z,1004.66
2016-11-20T02:58:31.129Z,1004.61
2016-11-20T02:59:39.742Z,1004.61
2016-11-20T03:00:48.375Z,1004.66
2016-11-20T03:01:57.302Z,1004.7
2016-11-20T03:03:05.913Z,1004.72
2016-11-20T03:04:14.527Z,1004.78
2016-11-20T03:05:23.135Z,1004.78
2016-11-20T03:06:31.777Z,1004.74
2016-11-20T03:07:40.395Z,1004.71
2016-11-20T03:08:49.017Z,1004.67
2016-11-20T03:09:57.663Z,1004.73
2016-11-20T03:11:06.288Z,1004.66
2016-11-20T03:12:14.912Z,1004.66
2016-11-20T03:13:23.530Z,1004.64
2016-11-20T03:14:32.155Z,1004.65
2016-11-20T03:15:40.768Z,1004.63
2016-11-20T03:16:49.426Z,1004.61
2016-11-20T03:17:58.044Z,1004.63
2016-11-20T03:19:06.688Z,1004.57
2016-11-20T03:20:15.324Z,1004.58
2016-11-20T03:21:23.932Z,1004.55
2016-11-20T03:22:32.577Z,1004.54
2016-11-20T03:23:41.194Z,1004.56
2016-11-20T03:24:49.840Z,1004.57
2016-11-20T03:25:58.470Z,1004.61
2016-11-20T03:27:07.100Z,1004.62
2016-11-20T03:28:15.725Z,1004.63
2016-11-20T03:29:24.347Z,1004.59
2016-11-20T03:30:32.968Z,1004.58
2016-11-20T03:31:41.592Z,1004.59
2016-11-20T03:32:50.213Z,1004.57
2016-11-20T03:33:59.152Z,1004.56
2016-11-20T03:35:07.753Z,1004.53
2016-11-20T03:36:16.381Z,1004.49
2016-11-20T03:37:24.998Z,1004.51
2016-11-20T03:38:33.611Z,1004.51
2016-11-20T03:39:42.214Z,1004.48
2016-11-20T03:40:50.828Z,1004.48
2016-11-20T03:41:59.436Z,1004.47
2016-11-20T03:43:08.055Z,1004.49
2016-11-20T03:44:16.670Z,1004.45
2016-11-20T03:45:25.319Z,1004.43
2016-11-20T03:46:33.933Z,1004.43
2016-11-20T03:47:42.539Z,1004.45
2016-11-20T03:48:51.138Z,1004.48
2016-11-20T03:49:59.750Z,1004.43
2016-11-20T03:51:08.367Z,1004.45
2016-11-20T03:52:16.975Z,1004.47
2016-11-20T03:53:25.616Z,1004.51
2016-11-20T03:54:34.238Z,1004.47
2016-11-20T03:55:42.865Z,1004.48
2016-11-20T03:56:51.480Z,1004.48
2016-11-20T03:58:00.101Z,1004.48
2016-11-20T03:59:08.697Z,1004.52
2016-11-20T04:00:17.315Z,1004.52
2016-11-20T04:01:25.940Z,1004.52
2016-11-20T04:02:34.568Z,1004.54
2016-11-20T04:03:43.178Z,1004.53
2016-11-20T04:04:52.107Z,1004.48
2016-11-20T04:06:00.724Z,1004.52
2016-11-20T04:07:09.346Z,1004.53
2016-11-20T04:08:17.958Z,1004.56
2016-11-20T04:09:26.566Z,1004.57
2016-11-20T04:10:35.200Z,1004.55
2016-11-20T04:11:44.130Z,1004.56
2016-11-20T04:12:52.742Z,1004.57
2016-11-20T04:14:01.351Z,1004.6
2016-11-20T04:15:09.964Z,1004.63
2016-11-20T04:16:18.590Z,1004.6
2016-11-20T04:17:27.193Z,1004.64
2016-11-20T04:18:35.803Z,1004.64
2016-11-20T04:19:44.418Z,1004.67
2016-11-20T04:20:53.044Z,1004.69
2016-11-20T04:22:01.674Z,1004.7
2016-11-20T04:23:10.293Z,1004.68
2016-11-20T04:24:18.915Z,1004.7
2016-11-20T04:25:27.565Z,1004.71
2016-11-20T04:26:36.178Z,1004.75
2016-11-20T04:27:44.816Z,1004.71
2016-11-20T04:28:53.445Z,1004.78
2016-11-20T04:30:02.063Z,1004.76
2016-11-20T04:31:10.991Z,1004.8
2016-11-20T04:32:19.612Z,1004.78
2016-11-20T04:33:28.226Z,1004.81
2016-11-20T04:34:36.873Z,1004.79
2016-11-20T04:35:45.501Z,1004.79
2016-11-20T04:36:54.171Z,1004.77
2016-11-20T04:38:02.781Z,1004.73
2016-11-20T04:39:11.407Z,1004.71
2016-11-20T04:40:20.010Z,1004.68
2016-11-20T04:41:28.932Z,1004.69
2016-11-20T04:42:37.545Z,1004.73
2016-11-20T04:43:46.166Z,1004.78
2016-11-20T04:44:54.787Z,1004.73
2016-11-20T04:46:03.411Z,1004.7
2016-11-20T04:47:12.054Z,1004.75
2016-11-20T04:48:20.671Z,1004.79
2016-11-20T04:49:29.304Z,1004.73
2016-11-20T04:50:37.943Z,1004.71
2016-11-20T04:51:46.559Z,1004.71
2016-11-20T04:52:55.196Z,1004.69
2016-11-20T04:54:03.831Z,1004.72
2016-11-20T04:55:12.479Z,1004.73
2016-11-20T04:56:21.076Z,1004.71
2016-11-20T04:57:29.693Z,1004.7
2016-11-20T04:58:38.609Z,1004.72
2016-11-20T04:59:47.236Z,1004.71
2016-11-20T05:00:55.864Z,1004.68
2016-11-20T05:02:04.505Z,1004.63
2016-11-20T05:03:13.120Z,1004.67
2016-11-20T05:04:21.744Z,1004.7
2016-11-20T05:05:30.371Z,1004.69
2016-11-20T05:06:38.969Z,1004.65
2016-11-20T05:07:47.610Z,1004.63
2016-11-20T05:08:56.232Z,1004.66
2016-11-20T05:10:04.858Z,1004.62
2016-11-20T05:11:13.523Z,1004.61
2016-11-20T05:12:22.178Z,1004.66
2016-11-20T05:13:30.795Z,1004.68
2016-11-20T05:14:39.386Z,1004.71
2016-11-20T05:15:48.013Z,1004.69
2016-11-20T05:16:56.653Z,1004.68
2016-11-20T05:18:05.246Z,1004.66
2016-11-20T05:19:13.870Z,1004.68
2016-11-20T05:20:22.495Z,1004.66
2016-11-20T05:21:31.112Z,1004.67
2016-11-20T05:22:39.752Z,1004.62
2016-11-20T05:23:48.351Z,1004.63
2016-11-20T05:24:56.972Z,1004.65
2016-11-20T05:26:05.594Z,1004.63
2016-11-20T05:27:14.219Z,1004.69
2016-11-20T05:28:22.836Z,1004.73
2016-11-20T05:29:31.427Z,1004.75
2016-11-20T05:30:40.090Z,1004.71
2016-11-20T05:31:48.704Z,1004.63
2016-11-20T05:32:57.358Z,1004.56
2016-11-20T05:34:05.974Z,1004.5
2016-11-20T05:35:14.583Z,1004.54
2016-11-20T05:36:23.187Z,1004.53
2016-11-20T05:37:31.800Z,1004.55
2016-11-20T05:38:40.404Z,1004.5
2016-11-20T05:39:49.004Z,1004.47
2016-11-20T05:40:57.620Z,1004.48
2016-11-20T05:42:06.235Z,1004.44
2016-11-20T05:43:14.880Z,1004.46
2016-11-20T05:44:23.505Z,1004.43
2016-11-20T05:45:32.135Z,1004.44
2016-11-20T05:46:40.755Z,1004.39
2016-11-20T05:47:49.347Z,1004.34
2016-11-20T05:48:57.967Z,1004.37
2016-11-20T05:50:06.640Z,1004.34
2016-11-20T05:51:15.238Z,1004.34
2016-11-20T05:52:23.887Z,1004.35
2016-11-20T05:53:32.532Z,1004.3
2016-11-20T05:54:41.170Z,1004.24
2016-11-20T05:55:49.793Z,1004.2
2016-11-20T05:56:58.438Z,1004.25
2016-11-20T05:58:07.067Z,1004.28
2016-11-20T05:59:15.703Z,1004.28
2016-11-20T06:00:24.296Z,1004.26
2016-11-20T06:01:32.892Z,1004.3
2016-11-20T06:02:41.497Z,1004.27
2016-11-20T06:03:50.123Z,1004.3
2016-11-20T06:04:58.761Z,1004.28
2016-11-20T06:06:07.387Z,1004.22
2016-11-20T06:07:16.010Z,1004.21
2016-11-20T06:08:24.649Z,1004.23
2016-11-20T06:09:33.271Z,1004.19
2016-11-20T06:10:41.875Z,1004.17
2016-11-20T06:11:50.483Z,1004.16
2016-11-20T06:12:59.087Z,1004.19
2016-11-20T06:14:07.708Z,1004.13
2016-11-20T06:15:16.329Z,1004.14
2016-11-20T06:16:24.951Z,1004.09
2016-11-20T06:17:33.565Z,1004.03
2016-11-20T06:18:42.174Z,1004.06
2016-11-20T06:19:50.812Z,1004.01
2016-11-20T06:20:59.440Z,1004
2016-11-20T06:22:08.074Z,1004.01
2016-11-20T06:23:16.679Z,1003.97
2016-11-20T06:24:25.328Z,1004
2016-11-20T06:25:33.950Z,1004.02
2016-11-20T06:26:42.585Z,1004.02
2016-11-20T06:27:51.185Z,1004.01
2016-11-20T06:29:00.106Z,1003.96
2016-11-20T06:30:08.723Z,1003.99
2016-11-20T06:31:17.351Z,1003.94
2016-11-20T06:32:25.970Z,1003.91
2016-11-20T06:33:34.624Z,1003.89
2016-11-20T06:34:43.246Z,1003.9
2016-11-20T06:35:51.869Z,1003.89
2016-11-20T06:37:00.508Z,1003.87
2016-11-20T06:38:09.110Z,1003.89
2016-11-20T06:39:17.750Z,1003.85
2016-11-20T06:40:26.375Z,1003.87
2016-11-20T06:41:35.017Z,1003.93
2016-11-20T06:42:43.636Z,1003.94
2016-11-20T06:43:52.261Z,1003.98
2016-11-20T06:45:00.887Z,1004.04
2016-11-20T06:46:09.556Z,1004.01
2016-11-20T06:47:18.157Z,1003.99
2016-11-20T06:48:26.771Z,1004.02
2016-11-20T06:49:35.413Z,1004.02
2016-11-20T06:50:44.037Z,1003.98
2016-11-20T06:51:52.655Z,1004.01
2016-11-20T06:53:01.271Z,1004.03
2016-11-20T06:54:09.873Z,1004.02
2016-11-20T06:55:18.499Z,1004.04
2016-11-20T06:56:27.110Z,1004.03
2016-11-20T06:57:35.710Z,1004.03
2016-11-20T06:58:44.339Z,1004.11
2016-11-20T06:59:52.974Z,1004.11
2016-11-20T07:01:01.607Z,1004.12
2016-11-20T07:02:10.253Z,1004.13
2016-11-20T07:03:18.888Z,1004.11
2016-11-20T07:04:27.509Z,1004.09
2016-11-20T07:05:36.118Z,1004.03
2016-11-20T07:06:44.755Z,1004.01
2016-11-20T07:07:53.386Z,1004.01
2016-11-20T07:09:02.008Z,1003.98
2016-11-20T07:10:10.640Z,1003.98
2016-11-20T07:11:19.236Z,1003.89
2016-11-20T07:12:27.857Z,1003.82
2016-11-20T07:13:36.465Z,1003.84
2016-11-20T07:14:45.106Z,1003.81
2016-11-20T07:15:53.703Z,1003.78
2016-11-20T07:17:02.331Z,1003.78
2016-11-20T07:18:10.971Z,1003.72
2016-11-20T07:19:19.588Z,1003.72
2016-11-20T07:20:28.237Z,1003.7
2016-11-20T07:21:36.835Z,1003.71
2016-11-20T07:22:45.476Z,1003.73
2016-11-20T07:23:54.122Z,1003.76
2016-11-20T07:25:02.745Z,1003.82
2016-11-20T07:26:11.395Z,1003.76
2016-11-20T07:27:20.021Z,1003.78
2016-11-20T07:28:28.637Z,1003.81
2016-11-20T07:29:37.249Z,1003.84
2016-11-20T07:30:45.856Z,1003.84
2016-11-20T07:31:54.466Z,1003.79
2016-11-20T07:33:03.088Z,1003.7
2016-11-20T07:34:11.709Z,1003.61
2016-11-20T07:35:20.314Z,1003.54
2016-11-20T07:36:28.935Z,1003.58
2016-11-20T07:37:37.531Z,1003.56
2016-11-20T07:38:46.147Z,1003.51
2016-11-20T07:39:54.764Z,1003.5
2016-11-20T07:41:03.364Z,1003.47
2016-11-20T07:42:12.019Z,1003.51
2016-11-20T07:43:20.627Z,1003.49
2016-11-20T07:44:29.256Z,1003.48
2016-11-20T07:45:37.902Z,1003.44
2016-11-20T07:46:46.495Z,1003.41
2016-11-20T07:47:55.094Z,1003.44
2016-11-20T07:49:03.738Z,1003.39
2016-11-20T07:50:12.390Z,1003.41
2016-11-20T07:51:21.033Z,1003.37
2016-11-20T07:52:29.659Z,1003.34
2016-11-20T07:53:38.297Z,1003.32
2016-11-20T07:54:46.913Z,1003.31
2016-11-20T07:55:55.822Z,1003.25
2016-11-20T07:57:04.431Z,1003.25
2016-11-20T07:58:13.040Z,1003.25
2016-11-20T07:59:21.655Z,1003.24
2016-11-20T08:00:30.312Z,1003.21
2016-11-20T08:01:39.265Z,1003.2
2016-11-20T08:02:47.870Z,1003.23
2016-11-20T08:03:56.462Z,1003.18
2016-11-20T08:05:05.103Z,1003.2
2016-11-20T08:06:13.732Z,1003.14
2016-11-20T08:07:22.349Z,1003.12
2016-11-20T08:08:30.995Z,1003.12
2016-11-20T08:09:39.600Z,1003.07
2016-11-20T08:10:48.209Z,1003.12
2016-11-20T08:11:57.137Z,1003.07
2016-11-20T08:13:05.779Z,1003.03
2016-11-20T08:14:14.371Z,1003.04
2016-11-20T08:15:22.999Z,1003.03
2016-11-20T08:16:31.638Z,1002.94
2016-11-20T08:17:40.295Z,1002.92
2016-11-20T08:18:48.914Z,1002.91
2016-11-20T08:19:57.535Z,1002.84
2016-11-20T08:21:06.159Z,1002.81
2016-11-20T08:22:14.780Z,1002.75
2016-11-20T08:23:23.696Z,1002.76
2016-11-20T08:24:32.321Z,1002.71
2016-11-20T08:25:40.968Z,1002.68
2016-11-20T08:26:49.602Z,1002.59
2016-11-20T08:27:58.227Z,1002.58
2016-11-20T08:29:06.855Z,1002.46
2016-11-20T08:30:15.476Z,1002.51
2016-11-20T08:31:24.068Z,1002.48
2016-11-20T08:32:32.706Z,1002.5
2016-11-20T08:33:41.328Z,1002.52
2016-11-20T08:34:49.953Z,1002.54
2016-11-20T08:35:58.606Z,1002.53
2016-11-20T08:37:07.252Z,1002.5
2016-11-20T08:38:15.895Z,1002.41
2016-11-20T08:39:24.521Z,1002.4
2016-11-20T08:40:33.137Z,1002.28
2016-11-20T08:41:41.749Z,1002.25
2016-11-20T08:42:50.350Z,1002.23
2016-11-20T08:43:58.967Z,1002.26
2016-11-20T08:45:07.575Z,1002.24
2016-11-20T08:46:16.214Z,1002.36
2016-11-20T08:47:24.835Z,1002.36
2016-11-20T08:48:33.453Z,1002.37
2016-11-20T08:49:42.087Z,1002.34
2016-11-20T08:50:50.719Z,1002.41
2016-11-20T08:51:59.328Z,1002.45
2016-11-20T08:53:07.947Z,1002.42
2016-11-20T08:54:16.575Z,1002.39
2016-11-20T08:55:25.203Z,1002.39
2016-11-20T08:56:33.854Z,1002.4
2016-11-20T08:57:42.482Z,1002.29
2016-11-20T08:58:51.103Z,1002.31
2016-11-20T08:59:59.729Z,1002.24
2016-11-20T09:01:08.340Z,1002.24
2016-11-20T09:02:16.980Z,1002.23
2016-11-20T09:03:25.609Z,1002.16
2016-11-20T09:04:34.247Z,1002.12
2016-11-20T09:05:42.843Z,1002.11
2016-11-20T09:06:51.451Z,1002.06
2016-11-20T09:08:00.072Z,1001.98
2016-11-20T09:09:08.714Z,1001.95
2016-11-20T09:10:17.312Z,1001.97
2016-11-20T09:11:25.940Z,1001.91
2016-11-20T09:12:34.600Z,1001.88
2016-11-20T09:13:43.245Z,1001.87
2016-11-20T09:14:51.924Z,1001.91
2016-11-20T09:16:00.566Z,1001.95
2016-11-20T09:17:09.158Z,1001.89
2016-11-20T09:18:17.812Z,1001.96
2016-11-20T09:19:26.433Z,1002.04
2016-11-20T09:20:35.057Z,1002.02
2016-11-20T09:21:43.677Z,1002.06
2016-11-20T09:22:52.310Z,1002.01
2016-11-20T09:24:01.244Z,1001.97
2016-11-20T09:25:09.859Z,1001.82
2016-11-20T09:26:18.473Z,1001.85
2016-11-20T09:27:27.093Z,1001.77
2016-11-20T09:28:35.723Z,1001.73
2016-11-20T09:29:44.336Z,1001.76
2016-11-20T09:30:52.971Z,1001.69
2016-11-20T09:32:01.604Z,1001.71
2016-11-20T09:33:10.212Z,1001.66
2016-11-20T09:34:18.813Z,1001.64
2016-11-20T09:35:27.417Z,1001.72
2016-11-20T09:36:36.025Z,1001.64
2016-11-20T09:37:44.642Z,1001.63
2016-11-20T09:38:53.268Z,1001.64
2016-11-20T09:40:01.918Z,1001.68
2016-11-20T09:41:10.552Z,1001.77
2016-11-20T09:42:19.182Z,1001.77
2016-11-20T09:43:28.097Z,1001.79
2016-11-20T09:44:36.722Z,1001.8
2016-11-20T09:45:45.361Z,1001.8
2016-11-20T09:46:54.004Z,1001.77
2016-11-20T09:48:02.623Z,1001.76
2016-11-20T09:49:11.263Z,1001.77
2016-11-20T09:50:20.183Z,1001.82
2016-11-20T09:51:28.817Z,1001.76
2016-11-20T09:52:37.426Z,1001.84
2016-11-20T09:53:46.060Z,1001.96
2016-11-20T09:54:54.688Z,1002.01
2016-11-20T09:56:03.310Z,1001.87
2016-11-20T09:57:11.943Z,1001.78
2016-11-20T09:58:20.543Z,1001.72
2016-11-20T09:59:29.197Z,1001.68
2016-11-20T10:00:37.830Z,1001.56
2016-11-20T10:01:46.456Z,1001.54
2016-11-20T10:02:55.062Z,1001.55
2016-11-20T10:04:03.703Z,1001.43
2016-11-20T10:05:12.632Z,1001.39
2016-11-20T10:06:21.244Z,1001.29
2016-11-20T10:07:29.859Z,1001.27
2016-11-20T10:08:38.479Z,1001.19
2016-11-20T10:09:47.113Z,1001.15
2016-11-20T10:10:55.738Z,1001.23
2016-11-20T10:12:04.354Z,1001.23
2016-11-20T10:13:12.949Z,1001.11
2016-11-20T10:14:21.571Z,1001.05
2016-11-20T10:15:30.218Z,1001.12
2016-11-20T10:16:38.860Z,1001.08
2016-11-20T10:17:47.481Z,1001.07
2016-11-20T10:18:56.105Z,1001.09
2016-11-20T10:20:04.699Z,1001.03
2016-11-20T10:21:13.316Z,1000.9
2016-11-20T10:22:21.936Z,1000.96
2016-11-20T10:23:30.583Z,1000.86
2016-11-20T10:24:39.199Z,1000.87
2016-11-20T10:25:47.808Z,1000.92
2016-11-20T10:26:56.448Z,1000.96
2016-11-20T10:28:05.075Z,1000.95
2016-11-20T10:29:13.721Z,1000.88
2016-11-20T10:30:22.339Z,1000.85
2016-11-20T10:31:31.537Z,1000.9
2016-11-20T10:32:40.155Z,1000.76
2016-11-20T10:33:48.780Z,1000.74
2016-11-20T10:34:57.407Z,1000.66
2016-11-20T10:36:06.043Z,1000.63
2016-11-20T10:37:14.674Z,1000.54
2016-11-20T10:38:23.315Z,1000.51
2016-11-20T10:39:31.956Z,1000.52
2016-11-20T10:40:40.595Z,1000.52
2016-11-20T10:41:49.199Z,1000.56
2016-11-20T10:42:57.813Z,1000.48
2016-11-20T10:44:06.416Z,1000.45
2016-11-20T10:45:15.062Z,1000.4
2016-11-20T10:46:23.687Z,1000.4
2016-11-20T10:47:32.333Z,1000.45
2016-11-20T10:48:40.957Z,1000.49
2016-11-20T10:49:49.571Z,1000.35
2016-11-20T10:50:58.214Z,1000.42
2016-11-20T10:52:06.839Z,1000.51
2016-11-20T10:53:15.464Z,1000.49
2016-11-20T10:54:24.103Z,1000.38
2016-11-20T10:55:32.737Z,1000.39
2016-11-20T10:56:41.402Z,1000.29
2016-11-20T10:57:50.025Z,1000.23
2016-11-20T10:58:58.641Z,1000.24
2016-11-20T11:00:07.279Z,1000.32
2016-11-20T11:01:15.915Z,1000.31
2016-11-20T11:02:24.554Z,1000.28
2016-11-20T11:03:33.179Z,1000.28
2016-11-20T11:04:41.846Z,1000.23
2016-11-20T11:05:50.496Z,1000.05
2016-11-20T11:06:59.117Z,1000.08
2016-11-20T11:08:07.758Z,999.87
2016-11-20T11:09:16.381Z,999.92
2016-11-20T11:10:24.995Z,999.9
2016-11-20T11:11:33.602Z,999.96
2016-11-20T11:12:42.245Z,1000.04
2016-11-20T11:13:50.895Z,1000.12
2016-11-20T11:14:59.509Z,1000.05
2016-11-20T11:16:08.156Z,1000.03
2016-11-20T11:17:16.775Z,1000.01
2016-11-20T11:18:25.375Z,1000.01
2016-11-20T11:19:34.021Z,1000.05
2016-11-20T11:20:42.646Z,1000.06
2016-11-20T11:21:51.293Z,1000.01
2016-11-20T11:22:59.938Z,999.96
2016-11-20T11:24:08.587Z,999.83
2016-11-20T11:25:17.205Z,999.77
2016-11-20T11:26:25.827Z,999.82
2016-11-20T11:27:34.473Z,999.71
2016-11-20T11:28:43.095Z,999.72
2016-11-20T11:29:51.741Z,999.62
2016-11-20T11:31:00.393Z,999.59
2016-11-20T11:32:09.033Z,999.59
2016-11-20T11:33:17.718Z,999.57
2016-11-20T11:34:26.351Z,999.59
2016-11-20T11:35:34.993Z,999.44
2016-11-20T11:36:43.640Z,999.33
2016-11-20T11:37:52.260Z,999.29
2016-11-20T11:39:00.890Z,999.28
2016-11-20T11:40:09.527Z,999.25
2016-11-20T11:41:18.154Z,999.29
2016-11-20T11:42:26.800Z,999.31
2016-11-20T11:43:35.420Z,999.38
2016-11-20T11:44:44.067Z,999.33
2016-11-20T11:45:52.701Z,999.32
2016-11-20T11:47:01.335Z,999.33
2016-11-20T11:48:09.981Z,999.22
2016-11-20T11:49:18.628Z,999.2
2016-11-20T11:50:27.276Z,999.21
2016-11-20T11:51:35.921Z,999.2
2016-11-20T11:52:44.553Z,999.18
2016-11-20T11:53:53.487Z,999.19
2016-11-20T11:55:02.133Z,999.22
2016-11-20T11:56:10.776Z,999.18
2016-11-20T11:57:19.397Z,999.11
2016-11-20T11:58:28.028Z,999.13
2016-11-20T11:59:36.669Z,999.14
2016-11-20T12:00:45.285Z,999.09
2016-11-20T12:01:53.911Z,999.1
2016-11-20T12:03:02.557Z,999.09
2016-11-20T12:04:11.191Z,999.05
2016-11-20T12:05:19.825Z,998.95
2016-11-20T12:06:28.446Z,998.92
2016-11-20T12:07:37.089Z,998.86
2016-11-20T12:08:45.706Z,998.8
2016-11-20T12:09:54.323Z,998.9
2016-11-20T12:11:02.948Z,998.94
2016-11-20T12:12:11.575Z,998.88
2016-11-20T12:13:20.194Z,998.85
2016-11-20T12:14:28.808Z,998.79
2016-11-20T12:15:37.436Z,998.77
2016-11-20T12:16:46.061Z,998.74
2016-11-20T12:17:54.685Z,998.74
2016-11-20T12:19:03.305Z,998.7
2016-11-20T12:20:11.948Z,998.64
2016-11-20T12:21:20.572Z,998.64
2016-11-20T12:22:29.213Z,998.56
2016-11-20T12:23:37.815Z,998.65
2016-11-20T12:24:46.431Z,998.63
2016-11-20T12:25:55.077Z,998.55
2016-11-20T12:27:03.704Z,998.55
2016-11-20T12:28:12.319Z,998.55
2016-11-20T12:29:20.941Z,998.64
2016-11-20T12:30:29.566Z,998.6
2016-11-20T12:31:38.187Z,998.58
2016-11-20T12:32:46.811Z,998.59
2016-11-20T12:33:55.451Z,998.61
2016-11-20T12:35:04.077Z,998.61
2016-11-20T12:36:12.750Z,998.59
2016-11-20T12:37:21.369Z,998.53
2016-11-20T12:38:30.311Z,998.57
2016-11-20T12:39:38.911Z,998.53
2016-11-20T12:40:47.545Z,998.51
2016-11-20T12:41:56.221Z,998.5
2016-11-20T12:43:04.850Z,998.54
2016-11-20T12:44:13.471Z,998.49
2016-11-20T12:45:22.116Z,998.45
2016-11-20T12:46:30.763Z,998.48
2016-11-20T12:47:39.405Z,998.37
2016-11-20T12:48:48.043Z,998.42
2016-11-20T12:49:56.672Z,998.45
2016-11-20T12:51:05.294Z,998.42
2016-11-20T12:52:13.933Z,998.44
2016-11-20T12:53:22.535Z,998.37
2016-11-20T12:54:31.160Z,998.41
2016-11-20T12:55:39.802Z,998.46
2016-11-20T12:56:48.445Z,998.45
2016-11-20T12:57:57.074Z,998.42
2016-11-20T12:59:05.690Z,998.44
2016-11-20T13:00:14.307Z,998.46
2016-11-20T13:01:22.954Z,998.4
2016-11-20T13:02:31.603Z,998.35
2016-11-20T13:03:40.241Z,998.34
2016-11-20T13:04:48.846Z,998.39
2016-11-20T13:05:57.468Z,998.43
2016-11-20T13:07:06.384Z,998.41
2016-11-20T13:08:15.036Z,998.42
2016-11-20T13:09:23.672Z,998.36
2016-11-20T13:10:32.279Z,998.37
2016-11-20T13:11:41.195Z,998.33
2016-11-20T13:12:49.791Z,998.3
2016-11-20T13:13:58.418Z,998.19
2016-11-20T13:15:07.087Z,998.13
2016-11-20T13:16:15.729Z,998.15
2016-11-20T13:17:24.355Z,998.03
2016-11-20T13:18:32.997Z,998.05
2016-11-20T13:19:41.700Z,998
2016-11-20T13:20:50.335Z,998
2016-11-20T13:21:58.959Z,998
2016-11-20T13:23:07.586Z,997.99
2016-11-20T13:24:16.226Z,997.92
2016-11-20T13:25:24.847Z,997.85
2016-11-20T13:26:33.446Z,997.8
2016-11-20T13:27:42.069Z,997.79
2016-11-20T13:28:50.760Z,997.78
2016-11-20T13:29:59.364Z,997.8
2016-11-20T13:31:07.995Z,997.76
2016-11-20T13:32:16.628Z,997.75
2016-11-20T13:33:25.238Z,997.75
2016-11-20T13:34:33.857Z,997.74
2016-11-20T13:35:42.490Z,997.72
2016-11-20T13:36:51.454Z,997.8
2016-11-20T13:38:00.070Z,997.79
2016-11-20T13:39:08.681Z,997.81
2016-11-20T13:40:17.321Z,997.82
2016-11-20T13:41:25.921Z,997.85
2016-11-20T13:42:34.567Z,997.9
2016-11-20T13:43:43.183Z,997.9
2016-11-20T13:44:51.829Z,997.78
2016-11-20T13:46:00.455Z,997.68
2016-11-20T13:47:09.077Z,997.69
2016-11-20T13:48:17.739Z,997.7
2016-11-20T13:49:26.385Z,997.66
2016-11-20T13:50:35.009Z,997.56
2016-11-20T13:51:43.631Z,997.48
2016-11-20T13:52:52.232Z,997.47
2016-11-20T13:54:00.851Z,997.42
2016-11-20T13:55:09.493Z,997.53
2016-11-20T13:56:18.123Z,997.6
2016-11-20T13:57:26.766Z,997.68